createdAt,value
2023-04-23T08:44:22.558Z,992.21
2023-04-23T08:45:23.634Z,992.16
2023-04-23T08:46:23.695Z,992.15
2023-04-23T08:47:23.616Z,992.09
2023-04-23T08:48:24.371Z,992.09
2023-04-23T08:49:24.213Z,992.05
2023-04-23T08:50:23.724Z,992.07
2023-04-23T08:51:24.160Z,992.05
2023-04-23T08:52:24.005Z,992.00
2023-04-23T08:53:32.840Z,992.03
2023-04-23T08:54:13.598Z,992.02
2023-04-23T08:55:13.187Z,992.00
2023-04-23T08:56:12.873Z,992.01
2023-04-23T08:57:12.860Z,992.03
2023-04-23T08:58:37.624Z,991.99
2023-04-23T08:59:38.591Z,992.00
2023-04-23T09:00:53.379Z,823.06
2023-04-23T09:01:54.398Z,823.06
2023-04-23T09:03:03.284Z,823.06
2023-04-23T09:04:00.893Z,823.06
2023-04-23T09:04:45.761Z,991.98
2023-04-23T09:05:45.615Z,992.00
2023-04-23T09:06:45.878Z,991.97
2023-04-23T09:07:45.971Z,991.97
2023-04-23T09:08:46.373Z,991.93
2023-04-23T09:09:46.785Z,991.96
2023-04-23T09:10:45.719Z,991.96
2023-04-23T09:11:45.781Z,991.96
2023-04-23T09:12:46.024Z,991.97
2023-04-23T09:13:46.757Z,991.96
2023-04-23T09:14:47.364Z,991.96
2023-04-23T09:15:45.923Z,991.93
2023-04-23T09:16:46.008Z,991.93
2023-04-23T09:17:45.756Z,991.90
2023-04-23T09:18:45.842Z,991.88
2023-04-23T09:19:45.875Z,991.88
2023-04-23T09:20:47.590Z,991.87
2023-04-23T09:21:47.088Z,991.86
2023-04-23T09:22:47.357Z,991.81
2023-04-23T09:23:45.980Z,991.84
2023-04-23T09:24:45.611Z,991.89
2023-04-23T09:25:45.996Z,991.89
2023-04-23T09:26:45.568Z,991.87
2023-04-23T09:27:46.543Z,991.85
2023-04-23T09:28:45.728Z,991.85
2023-04-23T09:29:45.586Z,991.85
2023-04-23T09:30:45.488Z,991.87
2023-04-23T09:31:45.558Z,991.88
2023-04-23T09:32:46.361Z,991.86
2023-04-23T09:33:45.842Z,991.93
2023-04-23T09:34:46.160Z,991.96
2023-04-23T09:35:45.974Z,992.00
2023-04-23T09:36:45.674Z,992.04
2023-04-23T09:37:46.487Z,992.06
2023-04-23T09:38:46.210Z,992.04
2023-04-23T09:39:46.231Z,992.01
2023-04-23T09:40:45.811Z,992.05
2023-04-23T09:41:48.174Z,992.03
2023-04-23T09:42:45.917Z,991.97
2023-04-23T09:43:45.744Z,991.97
2023-04-23T09:44:45.864Z,991.94
2023-04-23T09:45:45.551Z,991.94
2023-04-23T09:46:51.277Z,991.92
2023-04-23T09:47:45.702Z,991.93
2023-04-23T09:48:45.338Z,991.93
2023-04-23T09:49:45.665Z,991.91
2023-04-23T09:50:45.271Z,991.92
2023-04-23T09:51:45.466Z,991.91
2023-04-23T09:52:45.759Z,991.93
2023-04-23T09:53:45.692Z,991.91
2023-04-23T09:54:45.813Z,991.93
2023-04-23T09:55:45.329Z,991.92
2023-04-23T09:56:48.106Z,991.93
2023-04-23T09:57:45.199Z,991.91
2023-04-23T09:58:45.625Z,991.90
2023-04-23T09:59:47.853Z,991.93
2023-04-23T10:00:45.868Z,991.92
2023-04-23T10:01:46.174Z,991.89
2023-04-23T10:02:46.467Z,991.89
2023-04-23T10:03:45.358Z,991.89
2023-04-23T10:04:45.597Z,991.87
2023-04-23T10:06:00.288Z,991.87
2023-04-23T10:06:53.464Z,991.86
2023-04-23T10:07:46.400Z,991.84
2023-04-23T10:08:48.923Z,991.79
2023-04-23T10:09:45.223Z,991.72
2023-04-23T10:10:57.492Z,991.72
2023-04-23T10:11:45.381Z,991.67
2023-04-23T10:12:54.426Z,991.66
2023-04-23T10:13:47.087Z,991.61
2023-04-23T10:14:45.439Z,991.65
2023-04-23T10:15:45.309Z,991.67
2023-04-23T10:16:49.032Z,991.68
2023-04-23T10:17:45.544Z,991.69
2023-04-23T10:18:45.669Z,991.67
2023-04-23T10:19:45.694Z,991.61
2023-04-23T10:20:45.567Z,991.65
2023-04-23T10:21:53.701Z,991.69
2023-04-23T10:22:46.848Z,991.68
2023-04-23T10:23:45.650Z,991.66
2023-04-23T10:26:20.202Z,991.72
2023-04-23T10:27:30.646Z,991.74
2023-04-23T10:28:19.327Z,991.76
2023-04-23T10:29:19.363Z,991.77
2023-04-23T10:30:18.635Z,991.75
2023-04-23T10:31:19.098Z,991.74
2023-04-23T10:32:20.949Z,991.79
2023-04-23T10:33:29.377Z,991.74
2023-04-23T10:34:20.591Z,991.74
2023-04-23T10:35:18.771Z,991.71
2023-04-23T10:36:18.468Z,991.69
2023-04-23T10:37:18.701Z,991.68
2023-04-23T10:38:19.620Z,991.70
2023-04-23T10:39:27.453Z,991.73
2023-04-23T10:40:19.196Z,991.73
2023-04-23T10:41:20.647Z,991.70
2023-04-23T10:42:19.247Z,991.74
2023-04-23T10:43:18.498Z,991.70
2023-04-23T10:44:26.728Z,991.68
2023-04-23T10:46:18.601Z,991.64
2023-04-23T10:47:18.759Z,991.64
2023-04-23T10:48:18.459Z,991.67
2023-04-23T10:49:18.792Z,991.67
2023-04-23T10:50:18.993Z,991.66
2023-04-23T10:51:59.152Z,991.66
2023-04-23T10:52:25.343Z,991.66
2023-04-23T10:53:18.723Z,991.68
2023-04-23T10:54:18.532Z,991.64
2023-04-23T10:55:18.541Z,991.63
2023-04-23T10:56:18.896Z,991.56
2023-04-23T10:57:19.165Z,991.59
2023-04-23T10:58:18.637Z,991.59
2023-04-23T10:59:18.570Z,991.59
2023-04-23T11:00:18.341Z,991.58
2023-04-23T11:01:18.247Z,991.56
2023-04-23T11:02:18.277Z,991.54
2023-04-23T11:03:18.271Z,991.54
2023-04-23T11:04:18.654Z,991.53
2023-04-23T11:05:18.339Z,991.48
2023-04-23T11:06:18.320Z,991.48
2023-04-23T11:07:18.274Z,991.47
2023-04-23T11:08:20.069Z,991.44
2023-04-23T11:09:18.348Z,991.45
2023-04-23T11:10:18.144Z,991.42
2023-04-23T11:11:18.043Z,991.44
2023-04-23T11:12:17.993Z,991.40
2023-04-23T11:13:21.740Z,991.38
2023-04-23T11:15:28.710Z,0.00
2023-04-23T11:16:29.315Z,0.00
2023-04-23T11:17:29.564Z,0.00
2023-04-23T11:18:32.843Z,0.00
2023-04-23T11:19:29.493Z,0.00
2023-04-23T11:20:29.153Z,0.00
2023-04-23T11:21:29.288Z,0.00
2023-04-23T11:22:30.188Z,0.00
2023-04-23T11:23:29.920Z,0.00
2023-04-23T11:24:29.997Z,0.00
2023-04-23T11:25:29.319Z,0.00
2023-04-23T11:26:29.523Z,0.00
2023-04-23T11:27:29.639Z,0.00
2023-04-23T11:28:28.993Z,0.00
2023-04-23T11:30:05.309Z,991.23
2023-04-23T11:31:06.119Z,991.22
2023-04-23T11:32:04.190Z,991.23
2023-04-23T11:33:04.789Z,991.20
2023-04-23T11:34:03.624Z,991.20
2023-04-23T11:35:04.473Z,991.17
2023-04-23T11:36:03.749Z,991.17
2023-04-23T11:37:03.699Z,991.16
2023-04-23T11:38:03.582Z,991.15
2023-04-23T11:39:04.918Z,991.13
2023-04-23T11:40:12.020Z,991.15
2023-04-23T11:41:03.449Z,991.15
2023-04-23T11:42:04.099Z,991.12
2023-04-23T11:43:03.519Z,991.13
2023-04-23T11:44:03.543Z,991.12
2023-04-23T11:45:03.944Z,991.12
2023-04-23T11:46:03.766Z,991.06
2023-04-23T11:47:06.556Z,991.10
2023-04-23T11:48:03.597Z,991.07
2023-04-23T11:49:03.796Z,991.10
2023-04-23T11:50:03.817Z,991.08
2023-04-23T11:51:04.989Z,991.07
2023-04-23T11:52:04.292Z,991.08
2023-04-23T11:53:03.749Z,991.06
2023-04-23T11:54:03.581Z,991.05
2023-04-23T11:55:04.085Z,991.06
2023-04-23T11:56:03.925Z,991.05
2023-04-23T11:57:03.729Z,991.02
2023-04-23T11:58:04.679Z,991.03
2023-04-23T11:59:04.277Z,991.03
2023-04-23T12:00:03.364Z,991.00
2023-04-23T12:01:04.219Z,991.01
2023-04-23T12:02:03.400Z,991.00
2023-04-23T12:03:06.557Z,990.99
2023-04-23T12:04:06.240Z,990.97
2023-04-23T12:05:03.939Z,990.98
2023-04-23T12:06:03.571Z,990.92
2023-04-23T12:07:10.144Z,990.95
2023-04-23T12:08:03.735Z,990.95
2023-04-23T12:09:04.453Z,990.93
2023-04-23T12:10:03.657Z,990.94
2023-04-23T12:11:03.210Z,991.00
2023-04-23T12:12:03.434Z,990.95
2023-04-23T12:13:06.989Z,990.98
2023-04-23T12:14:03.491Z,990.94
2023-04-23T12:15:04.094Z,990.97
2023-04-23T12:16:03.117Z,990.97
2023-04-23T12:17:03.153Z,990.97
2023-04-23T12:18:03.718Z,990.97
2023-04-23T12:19:03.701Z,990.95
2023-04-23T12:20:04.056Z,990.93
2023-04-23T12:21:03.088Z,990.93
2023-04-23T12:22:02.913Z,990.93
2023-04-23T12:23:02.935Z,990.87
2023-04-23T12:24:02.951Z,990.89
2023-04-23T12:25:02.900Z,990.90
2023-04-23T12:26:02.832Z,990.81
2023-04-23T12:27:03.134Z,990.82
2023-04-23T12:28:02.907Z,990.79
2023-04-23T12:29:02.959Z,990.72
2023-04-23T12:30:07.066Z,990.77
2023-04-23T12:31:06.162Z,990.77
2023-04-23T12:32:03.294Z,990.78
2023-04-23T12:33:03.629Z,990.77
2023-04-23T12:34:03.414Z,990.76
2023-04-23T12:35:03.967Z,990.72
2023-04-23T12:36:02.721Z,990.74
2023-04-23T12:37:03.854Z,990.71
2023-04-23T12:38:02.996Z,990.73
2023-04-23T12:39:03.233Z,990.69
2023-04-23T12:40:03.881Z,990.72
2023-04-23T12:41:03.604Z,990.70
2023-04-23T12:42:03.626Z,990.75
2023-04-23T12:43:04.373Z,990.78
2023-04-23T12:44:24.288Z,990.75
2023-04-23T12:45:03.393Z,990.72
2023-04-23T12:46:04.698Z,990.71
2023-04-23T12:47:07.856Z,990.72
2023-04-23T12:57:20.746Z,990.78
2023-04-23T12:58:18.548Z,990.76
2023-04-23T12:59:18.426Z,990.76
2023-04-23T13:00:18.557Z,990.71
2023-04-23T13:01:21.399Z,990.69
2023-04-23T13:02:19.208Z,990.68
2023-04-23T13:03:19.241Z,990.67
